Terminal Aerodrome Forecast
Issued by NWS

Home | Current Version | Previous Version | Text Only | Print | Product List | Glossary On
Versions: 1 2 3 4 5 6 7 8 9 10 11 12 13 14 15 16 17 18 19
000
FTUS42 KFFC 210100 AAA
TAFRYY
TAF AMD
KRYY 210151Z 2102/2124 26002KT P6SM SCT120
     FM210900 29005KT P6SM FEW250
     FM211500 32010G16KT P6SM FEW250
     FM212300 33006KT P6SM SKC
      AMD NOT SKED 2104/2112=

USA.gov is the U.S. government's official web portal to all federal, state and local government web resources and services.